sensor_id;sensor_type;location;lat;lon;timestamp;P1;P2;P0
46381;PMS5003;66809;52.974;-2.514;2023-03-01T00:01:43;7.1;6.466666666666667;
46381;PMS5003;66809;52.974;-2.514;2023-03-01T00:03:42;7.0;6.35;
46381;PMS5003;66809;52.974;-2.514;2023-03-01T00:05:43;6.85;6.183333333333334;
46381;PMS5003;66809;52.974;-2.514;2023-03-01T00:07:43;6.816666666666666;6.116666666666666;
46381;PMS5003;66809;52.974;-2.514;2023-03-01T00:09:43;6.633333333333334;5.916666666666667;
46381;PMS5003;66809;52.974;-2.514;2023-03-01T00:11:43;6.483333333333333;5.8;
46381;PMS5003;66809;52.974;-2.514;2023-03-01T00:13:43;6.233333333333333;5.583333333333333;
46381;PMS5003;66809;52.974;-2.514;2023-03-01T00:15:43;6.083333333333333;5.466666666666667;
46381;PMS5003;66809;52.974;-2.514;2023-03-01T00:17:43;5.966666666666667;5.316666666666666;
46381;PMS5003;66809;52.974;-2.514;2023-03-01T00:19:43;5.9;5.283333333333333;
46381;PMS5003;66809;52.974;-2.514;2023-03-01T00:21:43;5.833333333333333;5.2;
46381;PMS5003;66809;52.974;-2.514;2023-03-01T00:23:42;5.716666666666667;5.116666666666666;
46381;PMS5003;66809;52.974;-2.514;2023-03-01T00:25:43;5.616666666666666;5.033333333333333;
46381;PMS5003;66809;52.974;-2.514;2023-03-01T00:27:43;5.633333333333334;5.016666666666667;
46381;PMS5003;66809;52.974;-2.514;2023-03-01T00:29:42;5.616666666666666;5.033333333333333;
46381;PMS5003;66809;52.974;-2.514;2023-03-01T00:31:43;5.6;5.033333333333333;
46381;PMS5003;66809;52.974;-2.514;2023-03-01T00:33:43;5.583333333333333;5.016666666666667;
46381;PMS5003;66809;52.974;-2.514;2023-03-01T00:35:43;5.516666666666667;4.95;
46381;PMS5003;66809;52.974;-2.514;2023-03-01T00:37:43;5.5;4.916666666666667;
46381;PMS5003;66809;52.974;-2.514;2023-03-01T00:39:43;5.616666666666666;5.0;
46381;PMS5003;66809;52.974;-2.514;2023-03-01T00:41:43;5.616666666666666;4.983333333333333;
46381;PMS5003;66809;52.974;-2.514;2023-03-01T00:43:43;5.516666666666667;4.883333333333334;
46381;PMS5003;66809;52.974;-2.514;2023-03-01T00:45:43;5.433333333333334;4.833333333333333;
46381;PMS5003;66809;52.974;-2.514;2023-03-01T00:47:43;5.433333333333334;4.866666666666666;
46381;PMS5003;66809;52.974;-2.514;2023-03-01T00:49:43;5.533333333333333;4.966666666666667;
46381;PMS5003;66809;52.974;-2.514;2023-03-01T00:51:43;5.733333333333333;5.15;
46381;PMS5003;66809;52.974;-2.514;2023-03-01T00:53:43;5.816666666666666;5.266666666666667;
46381;PMS5003;66809;52.974;-2.514;2023-03-01T00:55:43;5.933333333333334;5.383333333333334;
46381;PMS5003;66809;52.974;-2.514;2023-03-01T00:57:43;6.0;5.45;
46381;PMS5003;66809;52.974;-2.514;2023-03-01T00:59:43;6.1;5.533333333333333;
46381;PMS5003;66809;52.974;-2.514;2023-03-01T01:01:42;6.066666666666666;5.533333333333333;
46381;PMS5003;66809;52.974;-2.514;2023-03-01T01:03:44;6.133333333333334;5.616666666666666;
46381;PMS5003;66809;52.974;-2.514;2023-03-01T01:05:43;6.183333333333334;5.666666666666667;
46381;PMS5003;66809;52.974;-2.514;2023-03-01T01:07:43;6.166666666666667;5.633333333333334;
46381;PMS5003;66809;52.974;-2.514;2023-03-01T01:09:43;6.183333333333334;5.666666666666667;
46381;PMS5003;66809;52.974;-2.514;2023-03-01T01:11:44;6.183333333333334;5.666666666666667;
46381;PMS5003;66809;52.974;-2.514;2023-03-01T01:13:44;6.266666666666667;5.75;
46381;PMS5003;66809;52.974;-2.514;2023-03-01T01:15:43;6.316666666666666;5.766666666666667;
46381;PMS5003;66809;52.974;-2.514;2023-03-01T01:17:43;6.333333333333333;5.783333333333333;
46381;PMS5003;66809;52.974;-2.514;2023-03-01T01:19:43;6.35;5.75;
46381;PMS5003;66809;52.974;-2.514;2023-03-01T01:21:43;6.3;5.7;
46381;PMS5003;66809;52.974;-2.514;2023-03-01T01:23:43;6.283333333333333;5.683333333333334;
46381;PMS5003;66809;52.974;-2.514;2023-03-01T01:25:43;6.333333333333333;5.7;
46381;PMS5003;66809;52.974;-2.514;2023-03-01T01:27:43;6.2;5.633333333333334;
46381;PMS5003;66809;52.974;-2.514;2023-03-01T01:29:43;6.166666666666667;5.55;
46381;PMS5003;66809;52.974;-2.514;2023-03-01T01:31:43;6.116666666666666;5.516666666666667;
46381;PMS5003;66809;52.974;-2.514;2023-03-01T01:33:43;6.183333333333334;5.55;
46381;PMS5003;66809;52.974;-2.514;2023-03-01T01:35:44;6.183333333333334;5.55;
46381;PMS5003;66809;52.974;-2.514;2023-03-01T01:37:43;6.2;5.566666666666666;
46381;PMS5003;66809;52.974;-2.514;2023-03-01T01:39:43;6.05;5.433333333333334;
46381;PMS5003;66809;52.974;-2.514;2023-03-01T01:41:42;5.983333333333333;5.35;
46381;PMS5003;66809;52.974;-2.514;2023-03-01T01:43:44;6.05;5.416666666666667;
46381;PMS5003;66809;52.974;-2.514;2023-03-01T01:45:43;6.066666666666666;5.433333333333334;
46381;PMS5003;66809;52.974;-2.514;2023-03-01T01:47:43;6.083333333333333;5.416666666666667;
46381;PMS5003;66809;52.974;-2.514;2023-03-01T01:49:44;5.95;5.3;
46381;PMS5003;66809;52.974;-2.514;2023-03-01T01:51:43;5.8;5.166666666666667;
46381;PMS5003;66809;52.974;-2.514;2023-03-01T01:53:43;5.683333333333334;5.05;
46381;PMS5003;66809;52.974;-2.514;2023-03-01T01:55:43;5.65;4.983333333333333;
46381;PMS5003;66809;52.974;-2.514;2023-03-01T01:57:44;5.6;4.966666666666667;
46381;PMS5003;66809;52.974;-2.514;2023-03-01T01:59:45;5.516666666666667;4.9;
46381;PMS5003;66809;52.974;-2.514;2023-03-01T02:01:43;5.633333333333334;4.983333333333333;
46381;PMS5003;66809;52.974;-2.514;2023-03-01T02:03:43;5.583333333333333;4.933333333333334;
46381;PMS5003;66809;52.974;-2.514;2023-03-01T02:05:44;5.483333333333333;4.833333333333333;
46381;PMS5003;66809;52.974;-2.514;2023-03-01T02:07:43;5.4;4.8;
46381;PMS5003;66809;52.974;-2.514;2023-03-01T02:09:45;5.35;4.75;
46381;PMS5003;66809;52.974;-2.514;2023-03-01T02:11:43;5.366666666666666;4.766666666666667;
46381;PMS5003;66809;52.974;-2.514;2023-03-01T02:13:43;5.383333333333334;4.766666666666667;
46381;PMS5003;66809;52.974;-2.514;2023-03-01T02:15:43;5.35;4.783333333333333;
46381;PMS5003;66809;52.974;-2.514;2023-03-01T02:17:43;5.3;4.75;
46381;PMS5003;66809;52.974;-2.514;2023-03-01T02:19:46;5.183333333333334;4.683333333333334;
46381;PMS5003;66809;52.974;-2.514;2023-03-01T02:21:44;5.166666666666667;4.666666666666667;
46381;PMS5003;66809;52.974;-2.514;2023-03-01T02:23:42;5.183333333333334;4.633333333333334;
46381;PMS5003;66809;52.974;-2.514;2023-03-01T02:25:44;5.166666666666667;4.616666666666666;
46381;PMS5003;66809;52.974;-2.514;2023-03-01T02:27:45;5.1;4.55;
46381;PMS5003;66809;52.974;-2.514;2023-03-01T02:29:42;4.983333333333333;4.466666666666667;
46381;PMS5003;66809;52.974;-2.514;2023-03-01T02:31:43;4.9;4.4;
46381;PMS5003;66809;52.974;-2.514;2023-03-01T02:33:43;4.716666666666667;4.266666666666667;
46381;PMS5003;66809;52.974;-2.514;2023-03-01T02:35:43;4.583333333333333;4.133333333333334;
46381;PMS5003;66809;52.974;-2.514;2023-03-01T02:37:43;4.483333333333333;4.066666666666666;
46381;PMS5003;66809;52.974;-2.514;2023-03-01T02:39:44;4.45;4.05;
46381;PMS5003;66809;52.974;-2.514;2023-03-01T02:41:45;4.466666666666667;4.05;
46381;PMS5003;66809;52.974;-2.514;2023-03-01T02:43:43;4.516666666666667;4.066666666666666;
46381;PMS5003;66809;52.974;-2.514;2023-03-01T02:45:47;4.566666666666666;4.1;
46381;PMS5003;66809;52.974;-2.514;2023-03-01T02:47:43;4.566666666666666;4.083333333333333;
46381;PMS5003;66809;52.974;-2.514;2023-03-01T02:49:42;4.633333333333334;4.133333333333334;
46381;PMS5003;66809;52.974;-2.514;2023-03-01T02:51:45;4.766666666666667;4.216666666666667;
46381;PMS5003;66809;52.974;-2.514;2023-03-01T02:53:45;4.866666666666666;4.283333333333333;
46381;PMS5003;66809;52.974;-2.514;2023-03-01T02:55:43;4.983333333333333;4.333333333333333;
46381;PMS5003;66809;52.974;-2.514;2023-03-01T02:57:43;5.033333333333333;4.35;
46381;PMS5003;66809;52.974;-2.514;2023-03-01T02:59:43;5.1;4.4;
46381;PMS5003;66809;52.974;-2.514;2023-03-01T03:01:43;5.033333333333333;4.35;
46381;PMS5003;66809;52.974;-2.514;2023-03-01T03:03:43;5.083333333333333;4.4;
46381;PMS5003;66809;52.974;-2.514;2023-03-01T03:05:43;5.116666666666666;4.466666666666667;
46381;PMS5003;66809;52.974;-2.514;2023-03-01T03:07:44;5.183333333333334;4.533333333333333;
46381;PMS5003;66809;52.974;-2.514;2023-03-01T03:09:42;5.316666666666666;4.583333333333333;
46381;PMS5003;66809;52.974;-2.514;2023-03-01T03:11:43;5.333333333333333;4.583333333333333;
46381;PMS5003;66809;52.974;-2.514;2023-03-01T03:13:43;5.316666666666666;4.55;
46381;PMS5003;66809;52.974;-2.514;2023-03-01T03:15:43;5.35;4.583333333333333;
46381;PMS5003;66809;52.974;-2.514;2023-03-01T03:17:43;5.416666666666667;4.666666666666667;
46381;PMS5003;66809;52.974;-2.514;2023-03-01T03:19:43;5.5;4.75;
46381;PMS5003;66809;52.974;-2.514;2023-03-01T03:21:43;5.483333333333333;4.733333333333333;
46381;PMS5003;66809;52.974;-2.514;2023-03-01T03:23:43;5.45;4.75;
46381;PMS5003;66809;52.974;-2.514;2023-03-01T03:25:43;5.433333333333334;4.783333333333333;
46381;PMS5003;66809;52.974;-2.514;2023-03-01T03:27:44;5.45;4.8;
46381;PMS5003;66809;52.974;-2.514;2023-03-01T03:29:43;5.5;4.866666666666666;
46381;PMS5003;66809;52.974;-2.514;2023-03-01T03:31:43;5.5;4.866666666666666;
46381;PMS5003;66809;52.974;-2.514;2023-03-01T03:33:43;5.566666666666666;4.933333333333334;
46381;PMS5003;66809;52.974;-2.514;2023-03-01T03:35:44;5.766666666666667;5.066666666666666;
46381;PMS5003;66809;52.974;-2.514;2023-03-01T03:37:43;5.95;5.2;
46381;PMS5003;66809;52.974;-2.514;2023-03-01T03:39:43;6.05;5.3;
46381;PMS5003;66809;52.974;-2.514;2023-03-01T03:41:43;6.05;5.35;
46381;PMS5003;66809;52.974;-2.514;2023-03-01T03:43:43;5.916666666666667;5.233333333333333;
46381;PMS5003;66809;52.974;-2.514;2023-03-01T03:45:43;5.933333333333334;5.216666666666667;
46381;PMS5003;66809;52.974;-2.514;2023-03-01T03:47:43;5.966666666666667;5.25;
46381;PMS5003;66809;52.974;-2.514;2023-03-01T03:49:43;5.983333333333333;5.233333333333333;
46381;PMS5003;66809;52.974;-2.514;2023-03-01T03:51:45;5.866666666666666;5.166666666666667;
46381;PMS5003;66809;52.974;-2.514;2023-03-01T03:53:44;5.85;5.166666666666667;
46381;PMS5003;66809;52.974;-2.514;2023-03-01T03:55:43;5.783333333333333;5.183333333333334;
46381;PMS5003;66809;52.974;-2.514;2023-03-01T03:57:43;5.8;5.2;
46381;PMS5003;66809;52.974;-2.514;2023-03-01T03:59:43;5.783333333333333;5.166666666666667;
46381;PMS5003;66809;52.974;-2.514;2023-03-01T04:01:43;5.766666666666667;5.166666666666667;
46381;PMS5003;66809;52.974;-2.514;2023-03-01T04:03:43;5.8;5.166666666666667;
46381;PMS5003;66809;52.974;-2.514;2023-03-01T04:05:43;5.85;5.216666666666667;
46381;PMS5003;66809;52.974;-2.514;2023-03-01T04:07:43;5.983333333333333;5.316666666666666;
46381;PMS5003;66809;52.974;-2.514;2023-03-01T04:09:43;5.95;5.35;
46381;PMS5003;66809;52.974;-2.514;2023-03-01T04:11:42;5.916666666666667;5.333333333333333;
46381;PMS5003;66809;52.974;-2.514;2023-03-01T04:13:43;6.05;5.466666666666667;
46381;PMS5003;66809;52.974;-2.514;2023-03-01T04:15:43;6.05;5.45;
46381;PMS5003;66809;52.974;-2.514;2023-03-01T04:17:45;6.183333333333334;5.55;
46381;PMS5003;66809;52.974;-2.514;2023-03-01T04:19:43;6.216666666666667;5.583333333333333;
46381;PMS5003;66809;52.974;-2.514;2023-03-01T04:21:43;6.316666666666666;5.633333333333334;
46381;PMS5003;66809;52.974;-2.514;2023-03-01T04:23:42;6.316666666666666;5.633333333333334;
46381;PMS5003;66809;52.974;-2.514;2023-03-01T04:25:45;6.283333333333333;5.583333333333333;
46381;PMS5003;66809;52.974;-2.514;2023-03-01T04:27:43;6.45;5.716666666666667;
46381;PMS5003;66809;52.974;-2.514;2023-03-01T04:29:43;6.5;5.766666666666667;
46381;PMS5003;66809;52.974;-2.514;2023-03-01T04:31:43;6.533333333333333;5.783333333333333;
46381;PMS5003;66809;52.974;-2.514;2023-03-01T04:33:44;6.566666666666666;5.783333333333333;
46381;PMS5003;66809;52.974;-2.514;2023-03-01T04:35:43;6.55;5.783333333333333;
46381;PMS5003;66809;52.974;-2.514;2023-03-01T04:37:43;6.533333333333333;5.75;
46381;PMS5003;66809;52.974;-2.514;2023-03-01T04:39:43;6.516666666666667;5.716666666666667;
46381;PMS5003;66809;52.974;-2.514;2023-03-01T04:41:43;6.5;5.7;
46381;PMS5003;66809;52.974;-2.514;2023-03-01T04:43:43;6.55;5.733333333333333;
46381;PMS5003;66809;52.974;-2.514;2023-03-01T04:45:43;6.483333333333333;5.716666666666667;
46381;PMS5003;66809;52.974;-2.514;2023-03-01T04:47:43;6.35;5.633333333333334;
46381;PMS5003;66809;52.974;-2.514;2023-03-01T04:49:42;6.283333333333333;5.616666666666666;
46381;PMS5003;66809;52.974;-2.514;2023-03-01T04:51:43;6.25;5.566666666666666;
46381;PMS5003;66809;52.974;-2.514;2023-03-01T04:53:43;6.233333333333333;5.516666666666667;
46381;PMS5003;66809;52.974;-2.514;2023-03-01T04:55:43;6.233333333333333;5.466666666666667;
46381;PMS5003;66809;52.974;-2.514;2023-03-01T04:57:43;6.15;5.383333333333334;
46381;PMS5003;66809;52.974;-2.514;2023-03-01T04:59:43;6.166666666666667;5.433333333333334;
46381;PMS5003;66809;52.974;-2.514;2023-03-01T05:01:43;6.216666666666667;5.433333333333334;
46381;PMS5003;66809;52.974;-2.514;2023-03-01T05:03:44;6.083333333333333;5.35;
46381;PMS5003;66809;52.974;-2.514;2023-03-01T05:05:44;6.0;5.25;
46381;PMS5003;66809;52.974;-2.514;2023-03-01T05:07:43;5.783333333333333;5.05;
46381;PMS5003;66809;52.974;-2.514;2023-03-01T05:09:43;5.666666666666667;4.933333333333334;
46381;PMS5003;66809;52.974;-2.514;2023-03-01T05:11:43;5.683333333333334;4.933333333333334;
46381;PMS5003;66809;52.974;-2.514;2023-03-01T05:13:43;5.533333333333333;4.783333333333333;
46381;PMS5003;66809;52.974;-2.514;2023-03-01T05:15:43;5.516666666666667;4.733333333333333;
46381;PMS5003;66809;52.974;-2.514;2023-03-01T05:17:43;5.316666666666666;4.566666666666666;
46381;PMS5003;66809;52.974;-2.514;2023-03-01T05:19:43;5.183333333333334;4.433333333333334;
46381;PMS5003;66809;52.974;-2.514;2023-03-01T05:21:43;5.066666666666666;4.35;
46381;PMS5003;66809;52.974;-2.514;2023-03-01T05:23:43;5.033333333333333;4.316666666666666;
46381;PMS5003;66809;52.974;-2.514;2023-03-01T05:25:43;4.933333333333334;4.25;
46381;PMS5003;66809;52.974;-2.514;2023-03-01T05:27:43;4.683333333333334;4.033333333333333;
46381;PMS5003;66809;52.974;-2.514;2023-03-01T05:29:43;4.55;3.9;
46381;PMS5003;66809;52.974;-2.514;2023-03-01T05:31:42;4.516666666666667;3.8333333333333335;
46381;PMS5003;66809;52.974;-2.514;2023-03-01T05:33:43;4.45;3.783333333333333;
46381;PMS5003;66809;52.974;-2.514;2023-03-01T05:35:43;4.3;3.6666666666666665;
46381;PMS5003;66809;52.974;-2.514;2023-03-01T05:37:43;4.1;3.5;
46381;PMS5003;66809;52.974;-2.514;2023-03-01T05:39:43;3.9833333333333334;3.4;
46381;PMS5003;66809;52.974;-2.514;2023-03-01T05:41:43;3.966666666666667;3.3;
46381;PMS5003;66809;52.974;-2.514;2023-03-01T05:43:42;3.8666666666666667;3.2333333333333334;
46381;PMS5003;66809;52.974;-2.514;2023-03-01T05:45:43;3.85;3.216666666666667;
46381;PMS5003;66809;52.974;-2.514;2023-03-01T05:47:44;3.816666666666667;3.183333333333333;
46381;PMS5003;66809;52.974;-2.514;2023-03-01T05:49:43;3.7333333333333334;3.1;
46381;PMS5003;66809;52.974;-2.514;2023-03-01T05:51:43;3.7;3.0833333333333335;
46381;PMS5003;66809;52.974;-2.514;2023-03-01T05:53:42;3.566666666666667;3.0;
46381;PMS5003;66809;52.974;-2.514;2023-03-01T05:55:43;3.45;2.95;
46381;PMS5003;66809;52.974;-2.514;2023-03-01T05:57:43;3.3666666666666667;2.9;
46381;PMS5003;66809;52.974;-2.514;2023-03-01T05:59:43;3.25;2.783333333333333;
46381;PMS5003;66809;52.974;-2.514;2023-03-01T06:01:43;3.066666666666667;2.65;
46381;PMS5003;66809;52.974;-2.514;2023-03-01T06:03:43;3.15;2.716666666666667;
46381;PMS5003;66809;52.974;-2.514;2023-03-01T06:05:43;3.1166666666666667;2.716666666666667;
46381;PMS5003;66809;52.974;-2.514;2023-03-01T06:07:43;3.0833333333333335;2.716666666666667;
46381;PMS5003;66809;52.974;-2.514;2023-03-01T06:09:43;3.1166666666666667;2.75;
46381;PMS5003;66809;52.974;-2.514;2023-03-01T06:11:43;3.1166666666666667;2.716666666666667;
46381;PMS5003;66809;52.974;-2.514;2023-03-01T06:13:43;3.066666666666667;2.7;
46381;PMS5003;66809;52.974;-2.514;2023-03-01T06:15:43;2.9166666666666665;2.6;
46381;PMS5003;66809;52.974;-2.514;2023-03-01T06:17:43;2.9166666666666665;2.5833333333333335;
46381;PMS5003;66809;52.974;-2.514;2023-03-01T06:19:43;2.8833333333333333;2.55;
46381;PMS5003;66809;52.974;-2.514;2023-03-01T06:21:42;2.8666666666666667;2.533333333333333;
46381;PMS5003;66809;52.974;-2.514;2023-03-01T06:23:43;2.9;2.533333333333333;
46381;PMS5003;66809;52.974;-2.514;2023-03-01T06:25:43;2.933333333333333;2.566666666666667;
46381;PMS5003;66809;52.974;-2.514;2023-03-01T06:27:43;3.0;2.6333333333333333;
46381;PMS5003;66809;52.974;-2.514;2023-03-01T06:29:43;3.1333333333333333;2.716666666666667;
46381;PMS5003;66809;52.974;-2.514;2023-03-01T06:31:43;3.1333333333333333;2.7666666666666666;
46381;PMS5003;66809;52.974;-2.514;2023-03-01T06:33:44;3.15;2.7666666666666666;
46381;PMS5003;66809;52.974;-2.514;2023-03-01T06:35:43;3.216666666666667;2.7666666666666666;
46381;PMS5003;66809;52.974;-2.514;2023-03-01T06:37:43;3.2666666666666666;2.8333333333333335;
46381;PMS5003;66809;52.974;-2.514;2023-03-01T06:39:43;3.4166666666666665;2.933333333333333;
46381;PMS5003;66809;52.974;-2.514;2023-03-01T06:41:43;3.466666666666667;3.05;
46381;PMS5003;66809;52.974;-2.514;2023-03-01T06:43:43;3.6;3.1333333333333333;
46381;PMS5003;66809;52.974;-2.514;2023-03-01T06:45:42;3.65;3.1333333333333333;
46381;PMS5003;66809;52.974;-2.514;2023-03-01T06:47:43;3.716666666666667;3.183333333333333;
46381;PMS5003;66809;52.974;-2.514;2023-03-01T06:49:43;3.783333333333333;3.216666666666667;
46381;PMS5003;66809;52.974;-2.514;2023-03-01T06:51:43;3.783333333333333;3.216666666666667;
46381;PMS5003;66809;52.974;-2.514;2023-03-01T06:53:45;3.816666666666667;3.2333333333333334;
46381;PMS5003;66809;52.974;-2.514;2023-03-01T06:55:43;3.816666666666667;3.2333333333333334;
46381;PMS5003;66809;52.974;-2.514;2023-03-01T06:57:43;3.8833333333333333;3.3;
46381;PMS5003;66809;52.974;-2.514;2023-03-01T06:59:43;3.9;3.3;
46381;PMS5003;66809;52.974;-2.514;2023-03-01T07:01:43;3.9833333333333334;3.3666666666666667;
46381;PMS5003;66809;52.974;-2.514;2023-03-01T07:03:43;3.8833333333333333;3.283333333333333;
46381;PMS5003;66809;52.974;-2.514;2023-03-01T07:05:43;3.85;3.2333333333333334;
46381;PMS5003;66809;52.974;-2.514;2023-03-01T07:07:43;3.8666666666666667;3.25;
46381;PMS5003;66809;52.974;-2.514;2023-03-01T07:09:43;3.8333333333333335;3.2333333333333334;
46381;PMS5003;66809;52.974;-2.514;2023-03-01T07:11:43;3.8333333333333335;3.25;
46381;PMS5003;66809;52.974;-2.514;2023-03-01T07:13:42;3.8666666666666667;3.283333333333333;
46381;PMS5003;66809;52.974;-2.514;2023-03-01T07:15:43;3.9;3.316666666666667;
46381;PMS5003;66809;52.974;-2.514;2023-03-01T07:17:43;3.933333333333333;3.316666666666667;
46381;PMS5003;66809;52.974;-2.514;2023-03-01T07:19:43;4.033333333333333;3.3666666666666667;
46381;PMS5003;66809;52.974;-2.514;2023-03-01T07:21:43;4.033333333333333;3.4;
46381;PMS5003;66809;52.974;-2.514;2023-03-01T07:23:42;4.0;3.4;
46381;PMS5003;66809;52.974;-2.514;2023-03-01T07:25:43;3.966666666666667;3.35;
46381;PMS5003;66809;52.974;-2.514;2023-03-01T07:27:43;3.95;3.3333333333333335;
46381;PMS5003;66809;52.974;-2.514;2023-03-01T07:29:43;3.85;3.283333333333333;
46381;PMS5003;66809;52.974;-2.514;2023-03-01T07:31:43;3.8666666666666667;3.2666666666666666;
46381;PMS5003;66809;52.974;-2.514;2023-03-01T07:33:43;3.816666666666667;3.25;
46381;PMS5003;66809;52.974;-2.514;2023-03-01T07:35:43;3.7666666666666666;3.283333333333333;
46381;PMS5003;66809;52.974;-2.514;2023-03-01T07:37:43;3.7666666666666666;3.283333333333333;
46381;PMS5003;66809;52.974;-2.514;2023-03-01T07:39:43;3.6666666666666665;3.216666666666667;
46381;PMS5003;66809;52.974;-2.514;2023-03-01T07:41:42;3.65;3.2;
46381;PMS5003;66809;52.974;-2.514;2023-03-01T07:43:43;3.683333333333333;3.25;
46381;PMS5003;66809;52.974;-2.514;2023-03-01T07:45:43;3.65;3.2666666666666666;
46381;PMS5003;66809;52.974;-2.514;2023-03-01T07:47:43;3.65;3.25;
46381;PMS5003;66809;52.974;-2.514;2023-03-01T07:49:43;3.65;3.25;
46381;PMS5003;66809;52.974;-2.514;2023-03-01T07:51:43;3.65;3.2333333333333334;
46381;PMS5003;66809;52.974;-2.514;2023-03-01T07:53:45;3.6333333333333333;3.2333333333333334;
46381;PMS5003;66809;52.974;-2.514;2023-03-01T07:55:43;3.6333333333333333;3.216666666666667;
46381;PMS5003;66809;52.974;-2.514;2023-03-01T07:57:43;3.65;3.216666666666667;
46381;PMS5003;66809;52.974;-2.514;2023-03-01T07:59:43;3.6333333333333333;3.216666666666667;
46381;PMS5003;66809;52.974;-2.514;2023-03-01T08:01:43;3.6333333333333333;3.2333333333333334;
46381;PMS5003;66809;52.974;-2.514;2023-03-01T08:03:43;3.7;3.3;
46381;PMS5003;66809;52.974;-2.514;2023-03-01T08:05:43;3.716666666666667;3.3333333333333335;
46381;PMS5003;66809;52.974;-2.514;2023-03-01T08:07:43;3.8;3.4;
46381;PMS5003;66809;52.974;-2.514;2023-03-01T08:09:43;3.8333333333333335;3.433333333333333;
46381;PMS5003;66809;52.974;-2.514;2023-03-01T08:11:43;3.8666666666666667;3.466666666666667;
46381;PMS5003;66809;52.974;-2.514;2023-03-01T08:13:43;3.9;3.5;
46381;PMS5003;66809;52.974;-2.514;2023-03-01T08:15:43;4.0;3.6;
46381;PMS5003;66809;52.974;-2.514;2023-03-01T08:17:43;4.033333333333333;3.65;
46381;PMS5003;66809;52.974;-2.514;2023-03-01T08:19:43;4.016666666666667;3.6666666666666665;
46381;PMS5003;66809;52.974;-2.514;2023-03-01T08:21:43;4.083333333333333;3.7;
46381;PMS5003;66809;52.974;-2.514;2023-03-01T08:23:44;4.133333333333334;3.75;
46381;PMS5003;66809;52.974;-2.514;2023-03-01T08:25:43;4.183333333333334;3.816666666666667;
46381;PMS5003;66809;52.974;-2.514;2023-03-01T08:27:43;4.2;3.8333333333333335;
46381;PMS5003;66809;52.974;-2.514;2023-03-01T08:29:43;4.25;3.85;
46381;PMS5003;66809;52.974;-2.514;2023-03-01T08:31:43;4.283333333333333;3.9;
46381;PMS5003;66809;52.974;-2.514;2023-03-01T08:33:44;4.333333333333333;3.933333333333333;
46381;PMS5003;66809;52.974;-2.514;2023-03-01T08:35:43;4.366666666666666;3.8833333333333333;
46381;PMS5003;66809;52.974;-2.514;2023-03-01T08:37:43;4.383333333333334;3.8833333333333333;
46381;PMS5003;66809;52.974;-2.514;2023-03-01T08:39:42;4.383333333333334;3.8833333333333333;
46381;PMS5003;66809;52.974;-2.514;2023-03-01T08:41:43;4.35;3.8666666666666667;
46381;PMS5003;66809;52.974;-2.514;2023-03-01T08:43:43;4.35;3.8333333333333335;
46381;PMS5003;66809;52.974;-2.514;2023-03-01T08:45:42;4.283333333333333;3.7666666666666666;
46381;PMS5003;66809;52.974;-2.514;2023-03-01T08:47:43;4.3;3.783333333333333;
46381;PMS5003;66809;52.974;-2.514;2023-03-01T08:49:43;4.316666666666666;3.8333333333333335;
46381;PMS5003;66809;52.974;-2.514;2023-03-01T08:51:44;4.35;3.85;
46381;PMS5003;66809;52.974;-2.514;2023-03-01T08:53:43;4.483333333333333;3.9166666666666665;
46381;PMS5003;66809;52.974;-2.514;2023-03-01T08:55:43;4.6;3.9833333333333334;
46381;PMS5003;66809;52.974;-2.514;2023-03-01T08:57:42;4.7;4.066666666666666;
46381;PMS5003;66809;52.974;-2.514;2023-03-01T08:59:42;4.8;4.116666666666666;
46381;PMS5003;66809;52.974;-2.514;2023-03-01T09:01:43;4.833333333333333;4.15;
46381;PMS5003;66809;52.974;-2.514;2023-03-01T09:03:43;4.833333333333333;4.133333333333334;
46381;PMS5003;66809;52.974;-2.514;2023-03-01T09:05:43;4.933333333333334;4.216666666666667;
46381;PMS5003;66809;52.974;-2.514;2023-03-01T09:07:43;4.95;4.216666666666667;
46381;PMS5003;66809;52.974;-2.514;2023-03-01T09:09:43;4.95;4.166666666666667;
46381;PMS5003;66809;52.974;-2.514;2023-03-01T09:11:43;4.916666666666667;4.133333333333334;
46381;PMS5003;66809;52.974;-2.514;2023-03-01T09:13:43;4.883333333333334;4.066666666666666;
46381;PMS5003;66809;52.974;-2.514;2023-03-01T09:15:43;4.983333333333333;4.15;
46381;PMS5003;66809;52.974;-2.514;2023-03-01T09:17:43;4.95;4.133333333333334;
46381;PMS5003;66809;52.974;-2.514;2023-03-01T09:19:43;5.033333333333333;4.2;
46381;PMS5003;66809;52.974;-2.514;2023-03-01T09:21:43;5.0;4.15;
46381;PMS5003;66809;52.974;-2.514;2023-03-01T09:23:43;4.95;4.1;
46381;PMS5003;66809;52.974;-2.514;2023-03-01T09:25:43;5.0;4.083333333333333;
46381;PMS5003;66809;52.974;-2.514;2023-03-01T09:27:43;5.016666666666667;4.1;
46381;PMS5003;66809;52.974;-2.514;2023-03-01T09:29:43;5.1;4.15;
46381;PMS5003;66809;52.974;-2.514;2023-03-01T09:31:42;5.083333333333333;4.133333333333334;
46381;PMS5003;66809;52.974;-2.514;2023-03-01T09:33:45;5.066666666666666;4.116666666666666;
46381;PMS5003;66809;52.974;-2.514;2023-03-01T09:35:42;5.15;4.25;
46381;PMS5003;66809;52.974;-2.514;2023-03-01T09:37:44;5.15;4.283333333333333;
46381;PMS5003;66809;52.974;-2.514;2023-03-01T09:39:43;5.166666666666667;4.283333333333333;